Time;durP1;ratioP1;P1;durP2;ratioP2;P2;SDS_P1;SDS_P2;PMS_P1;PMS_P2;Temp;Humidity;BMP_temperature;BMP_pressure;BME280_temperature;BME280_humidity;BME280_pressure;Samples;Min_cycle;Max_cycle;Signal;HPM_P1;HPM_P2
2023/07/08 00:00:48;;;;;;;;;;;;;;;;;;2063418;28;19917;-73
2023/07/08 00:02:10;;;;;;;;;;;;;;;;;;2062870;28;19918;-73
2023/07/08 00:03:31;;;;;;;;;;;;;;;;;;2075570;28;21211;-73
2023/07/08 00:04:51;;;;;;;;;;;;;;;;;;2067914;28;20288;-72
2023/07/08 00:06:12;;;;;;;;;;;;;;;;;;2065371;28;19913;-73
2023/07/08 00:07:33;;;;;;;;;;;;;;;;;;2059408;28;19917;-73
2023/07/08 00:08:54;;;;;;;;;;;;;;;;;;2064246;28;20437;-73
2023/07/08 00:10:14;;;;;;;;;;;;;;;;;;2064930;28;19921;-73
2023/07/08 00:11:35;;;;;;;;;;;;;;;;;;2061245;28;19910;-73
2023/07/08 00:12:56;;;;;;;;;;;;;;;;;;2063660;28;20285;-73
2023/07/08 00:14:16;;;;;;;;;;;;;;;;;;2078681;28;19909;-73
2023/07/08 00:15:37;;;;;;;;;;;;;;;;;;2068585;28;19910;-72
2023/07/08 00:16:58;;;;;;;;;;;;;;;;;;2079599;28;19905;-73
2023/07/08 00:18:18;;;;;;;;;;;;;;;;;;2069592;28;20302;-73
2023/07/08 00:19:39;;;;;;;;;;;;;;;;;;2077942;28;20411;-73
2023/07/08 00:21:00;;;;;;;;;;;;;;;;;;2068606;28;20297;-73
2023/07/08 00:22:22;;;;;;;;;;;;;;;;;;2061008;28;19910;-73
2023/07/08 00:23:43;;;;;;;;;;;;;;;;;;2056572;28;20325;-73
2023/07/08 00:25:03;;;;;;;;;;;;;;;;;;2065737;28;19917;-73
2023/07/08 00:26:24;;;;;;;;;;;;;;;;;;2064724;28;19929;-73
2023/07/08 00:27:45;;;;;;;;;;;;;;;;;;2059922;28;19931;-73
2023/07/08 00:29:06;;;;;;;;;;;;;;;;;;2064767;28;19913;-74
2023/07/08 00:30:26;;;;;;;;;;;;;;;;;;2067278;28;20368;-73
2023/07/08 00:31:47;;;;;;;;;;;;;;;;;;2079771;28;20312;-73
2023/07/08 00:33:08;;;;;;;;;;;;;;;;;;2069188;28;19913;-73
2023/07/08 00:34:28;;;;;;;;;;;;;;;;;;2080456;28;20295;-73
2023/07/08 00:35:49;;;;;;;;;;;;;;;;;;2069190;28;19914;-73
2023/07/08 00:37:10;;;;;;;;;;;;;;;;;;2069640;28;19921;-73
2023/07/08 00:38:31;;;;;;;;;;;;;;;;;;2063750;28;19906;-73
2023/07/08 00:39:52;;;;;;;;;;;;;;;;;;2066976;28;19928;-73
2023/07/08 00:41:12;;;;;;;;;;;;;;;;;;2061000;28;20225;-73
2023/07/08 00:42:33;;;;;;;;;;;;;;;;;;2059125;28;19906;-73
2023/07/08 00:43:54;;;;;;;;;;;;;;;;;;2081888;28;19962;-73
2023/07/08 00:45:14;;;;;;;;;;;;;;;;;;2072207;28;20245;-73
2023/07/08 00:46:35;;;;;;;;;;;;;;;;;;2080479;28;19979;-73
2023/07/08 00:47:56;;;;;;;;;;;;;;;;;;2071039;28;19909;-73
2023/07/08 00:49:17;;;;;;;;;;;;;;;;;;2061225;28;19910;-73
2023/07/08 00:50:37;;;;;;;;;;;;;;;;;;2062713;28;19925;-73
2023/07/08 00:51:58;;;;;;;;;;;;;;;;;;2084914;28;20398;-73
2023/07/08 00:53:19;;;;;;;;;;;;;;;;;;2071078;28;19910;-73
2023/07/08 00:54:39;;;;;;;;;;;;;;;;;;2070064;28;19916;-73
2023/07/08 00:56:00;;;;;;;;;;;;;;;;;;2081899;28;19905;-73
2023/07/08 00:57:21;;;;;;;;;;;;;;;;;;2063505;28;19910;-73
2023/07/08 00:58:41;;;;;;;;;;;;;;;;;;2067379;28;20309;-73
2023/07/08 01:00:03;;;;;;;;;;;;;;;;;;2069676;28;19909;-73
2023/07/08 01:01:24;;;;;;;;;;;;;;;;;;2063063;28;19906;-71
2023/07/08 12:18:32;;;;;;;;;;;;;;;;;;2060350;28;19918;-95
2023/07/08 12:20:00;;;;;;;;;;;;;;;;;;2055516;28;19910;-95
2023/07/08 12:21:29;;;;;;;;;;;;;;;;;;2052478;29;19910;-93
2023/07/08 12:22:59;;;;;;;;;;;;;;;;;;2057050;28;20420;-95
2023/07/08 12:24:28;;;;;;;;;;;;;;;;;;2060722;28;19921;-95
2023/07/08 12:25:49;;;;;;;;;;;;;;;;;;2064680;28;19914;-94
2023/07/08 12:27:13;;;;;;;;;;;;;;;;;;2060157;28;19902;-96
2023/07/08 12:28:36;;;;;;;;;;;;;;;;;;2070658;28;19924;-94
2023/07/08 12:29:57;;;;;;;;;;;;;;;;;;2061727;28;19899;-95
2023/07/08 12:31:18;;;;;;;;;;;;;;;;;;2057585;28;19903;-94
2023/07/08 19:37:37;;;;;;;;;;;;;;;;;;2056860;28;19929;-93
2023/07/08 19:38:58;;;;;;;;;;;;;;;;;;2052950;29;19910;-94
2023/07/08 19:40:21;;;;;;;;;;;;;;;;;;2048261;29;19907;-92
2023/07/08 19:41:42;;;;;;;;;;;;;;;;;;2050542;28;19921;-93
2023/07/08 19:43:11;;;;;;;;;;;;;;;;;;2062613;28;19906;-93
2023/07/08 19:44:34;;;;;;;;;;;;;;;;;;2054882;28;19907;-92
2023/07/08 19:45:59;;;;;;;;;;;;;;;;;;2032231;29;19907;-93
2023/07/08 19:47:26;;;;;;;;;;;;;;;;;;2050299;29;19906;-93
2023/07/08 19:49:06;;;;;;;;;;;;;;;;;;2059996;28;19913;-93
2023/07/08 19:50:36;;;;;;;;;;;;;;;;;;2051236;29;19907;-93
2023/07/08 19:51:59;;;;;;;;;;;;;;;;;;2065140;28;19906;-93
2023/07/08 19:53:22;;;;;;;;;;;;;;;;;;2052573;28;19917;-93
2023/07/08 19:54:45;;;;;;;;;;;;;;;;;;2052675;28;19914;-93
2023/07/08 19:56:08;;;;;;;;;;;;;;;;;;2045451;28;19917;-94
2023/07/08 19:57:38;;;;;;;;;;;;;;;;;;2047954;29;20337;-91
2023/07/08 19:59:02;;;;;;;;;;;;;;;;;;2066552;28;19905;-92
2023/07/08 20:00:25;;;;;;;;;;;;;;;;;;2054936;28;19910;-92
2023/07/08 20:01:46;;;;;;;;;;;;;;;;;;2053566;29;19907;-94
2023/07/08 20:03:13;;;;;;;;;;;;;;;;;;2060586;28;19906;-93
2023/07/08 20:04:36;;;;;;;;;;;;;;;;;;2048215;29;19914;-92
2023/07/08 20:06:12;;;;;;;;;;;;;;;;;;2032977;29;19914;-93
2023/07/08 20:07:43;;;;;;;;;;;;;;;;;;2041207;29;19915;-96
2023/07/08 20:09:20;;;;;;;;;;;;;;;;;;;;;
2023/07/08 20:10:53;;;;;;;;;;;;;;;;;;2044085;29;20346;-96
2023/07/08 20:12:14;;;;;;;;;;;;;;;;;;2043043;29;19980;-96
2023/07/08 20:14:02;;;;;;;;;;;;;;;;;;2050569;28;19911;-96
2023/07/08 20:15:23;;;;;;;;;;;;;;;;;;2050592;29;19911;-96
2023/07/08 20:16:58;;;;;;;;;;;;;;;;;;2051188;28;19914;-96
2023/07/08 20:18:19;;;;;;;;;;;;;;;;;;2058836;28;19891;-96
2023/07/08 20:19:48;;;;;;;;;;;;;;;;;;2055590;29;20346;-96
